Time;durP1;ratioP1;P1;durP2;ratioP2;P2;SDS_P1;SDS_P2;PMS_P1;PMS_P2;Temp;Humidity;BMP_temperature;BMP_pressure;BME280_temperature;BME280_humidity;BME280_pressure;Samples;Min_cycle;Max_cycle;Signal;HPM_P1;HPM_P2
2021/08/26 00:00:50;;;;;;;12.35;5.05;;;;;;;15.83;100.00;101807.94;5229325;28;20394;-83
2021/08/26 00:06:16;;;;;;;12.35;5.13;;;;;;;15.83;100.00;101792.53;5229619;28;20467;-82
2021/08/26 00:08:50;;;;;;;16.88;6.15;;;;;;;15.71;100.00;101789.41;5212102;28;20119;-83
2021/08/26 00:11:22;;;;;;;13.50;5.65;;;;;;;15.79;100.00;101778.53;5227049;28;20057;-82
2021/08/26 00:13:54;;;;;;;13.48;6.15;;;;;;;15.74;100.00;101777.38;5218940;28;20035;-82
2021/08/26 00:16:25;;;;;;;15.23;6.13;;;;;;;15.71;100.00;101772.31;5228982;28;20165;-82
2021/08/26 00:18:56;;;;;;;18.05;6.05;;;;;;;15.69;100.00;101771.66;5229317;28;20032;-82
2021/08/26 00:21:28;;;;;;;16.73;7.75;;;;;;;15.64;100.00;101765.94;5211683;28;20090;-82
2021/08/26 00:23:58;;;;;;;15.00;6.93;;;;;;;15.62;100.00;101766.09;5230116;28;20108;-82
2021/08/26 00:26:31;;;;;;;12.18;5.85;;;;;;;15.62;100.00;101766.09;5197319;28;20529;-83
2021/08/26 00:29:04;;;;;;;16.10;6.95;;;;;;;15.59;100.00;101761.03;5227448;28;20032;-82
2021/08/26 00:31:35;;;;;;;12.25;6.25;;;;;;;15.62;100.00;101763.38;5217310;28;20096;-82
2021/08/26 00:34:05;;;;;;;17.15;7.68;;;;;;;15.61;100.00;101766.25;5228761;28;20029;-82
2021/08/26 00:36:36;;;;;;;19.77;9.45;;;;;;;15.62;100.00;101759.84;5219535;28;20064;-83
2021/08/26 00:39:06;;;;;;;25.98;10.20;;;;;;;15.62;100.00;101762.53;5225386;28;20263;-82
2021/08/26 00:41:37;;;;;;;16.58;9.07;;;;;;;15.60;100.00;101760.00;5228462;28;20543;-83
2021/08/26 00:44:07;;;;;;;19.58;9.88;;;;;;;15.54;100.00;101756.13;5229954;28;20410;-82
2021/08/26 00:46:39;;;;;;;24.17;10.55;;;;;;;15.49;100.00;101755.81;5217372;28;20043;-82
2021/08/26 00:49:12;;;;;;;21.52;10.02;;;;;;;15.53;100.00;101750.91;5227375;28;20029;-83
2021/08/26 00:51:43;;;;;;;22.25;10.00;;;;;;;15.53;100.00;101754.47;5228700;28;20051;-82
2021/08/26 00:54:14;;;;;;;21.58;9.82;;;;;;;15.50;100.00;101743.13;5219999;28;20047;-82
2021/08/26 00:56:44;;;;;;;23.05;11.50;;;;;;;15.47;100.00;101746.22;5202533;28;20020;-82
2021/08/26 00:59:15;;;;;;;24.60;10.65;;;;;;;15.46;100.00;101741.81;5223169;28;20148;-83
2021/08/26 01:01:47;;;;;;;26.95;11.48;;;;;;;15.41;100.00;101744.19;5199702;28;20420;-82
2021/08/26 01:04:25;;;;;;;21.98;10.38;;;;;;;15.41;100.00;101733.38;5223372;28;20060;-82
2021/08/26 01:07:24;;;;;;;23.67;9.00;;;;;;;15.47;100.00;101730.84;5210490;28;20029;-82
2021/08/26 01:10:01;;;;;;;19.70;8.77;;;;;;;15.52;100.00;101725.75;5222988;28;20386;-82
2021/08/26 01:12:34;;;;;;;15.88;8.60;;;;;;;15.51;100.00;101726.75;5211340;28;20044;-82
2021/08/26 01:15:07;;;;;;;18.73;8.43;;;;;;;15.51;100.00;101717.78;5221740;28;20111;-82
2021/08/26 01:17:37;;;;;;;16.65;8.50;;;;;;;15.49;100.00;101723.38;5222952;28;20033;-83
2021/08/26 01:20:08;;;;;;;30.25;9.45;;;;;;;15.47;100.00;101720.03;5222925;28;20023;-82
2021/08/26 01:22:39;;;;;;;20.67;9.55;;;;;;;15.51;100.00;101720.47;5205149;28;20028;-82
2021/08/26 01:25:13;;;;;;;17.20;9.20;;;;;;;15.53;100.00;101719.31;5222647;28;20098;-81
2021/08/26 01:27:50;;;;;;;20.73;9.80;;;;;;;15.59;100.00;101709.63;5222964;28;20112;-82
2021/08/26 01:30:24;;;;;;;32.60;12.32;;;;;;;15.52;100.00;101711.38;5204652;28;20398;-82
2021/08/26 01:32:58;;;;;;;23.80;11.05;;;;;;;15.51;100.00;101696.16;5202738;28;20375;-82
2021/08/26 01:35:29;;;;;;;28.20;13.43;;;;;;;15.49;100.00;101692.78;5197062;28;20449;-82
2021/08/26 01:38:00;;;;;;;24.52;12.00;;;;;;;15.48;100.00;101699.22;5209777;28;20056;-82
2021/08/26 01:40:37;;;;;;;29.67;13.88;;;;;;;15.60;100.00;101699.66;5222561;28;20143;-82
2021/08/26 01:43:11;;;;;;;28.35;13.45;;;;;;;15.52;100.00;101687.88;5222590;28;20033;-82
2021/08/26 01:45:43;;;;;;;24.77;12.95;;;;;;;15.50;100.00;101680.94;5204157;28;20021;-82
2021/08/26 01:48:17;;;;;;;;;;;;;;;15.53;100.00;101689.56;5214833;28;20508;-82
2021/08/26 01:50:49;;;;;;;29.92;13.73;;;;;;;15.59;100.00;101688.00;5209201;28;20188;-82
2021/08/26 01:53:20;;;;;;;27.98;14.60;;;;;;;15.64;100.00;101690.19;5227131;28;20044;-83
2021/08/26 01:55:51;;;;;;;27.23;14.70;;;;;;;15.61;100.00;101683.22;5227910;28;20028;-82
2021/08/26 01:58:22;;;;;;;26.73;13.27;;;;;;;15.69;100.00;101682.38;5224926;28;20033;-82
2021/08/26 02:00:53;;;;;;;25.05;13.05;;;;;;;15.65;100.00;101687.31;5216684;28;20310;-83
2021/08/26 02:03:25;;;;;;;30.35;15.02;;;;;;;15.66;100.00;101680.03;5227752;28;20364;-82
2021/08/26 02:06:03;;;;;;;27.15;14.07;;;;;;;15.65;100.00;101676.47;5226599;28;20066;-82
2021/08/26 02:08:41;;;;;;;27.33;12.90;;;;;;;15.64;100.00;101669.41;5227590;28;20066;-82
2021/08/26 02:11:12;;;;;;;24.80;12.32;;;;;;;15.66;100.00;101670.06;5227532;28;20460;-82
2021/08/26 02:13:46;;;;;;;23.38;11.88;;;;;;;15.72;100.00;101671.22;5203348;28;20440;-82
2021/08/26 02:16:17;;;;;;;20.15;9.85;;;;;;;15.72;100.00;101672.06;5228642;28;20183;-82
2021/08/26 02:18:47;;;;;;;23.70;11.20;;;;;;;15.74;100.00;101658.34;5231942;28;20028;-82
2021/08/26 02:21:18;;;;;;;24.35;11.35;;;;;;;15.75;100.00;101660.84;5232021;28;20031;-82
2021/08/26 02:23:52;;;;;;;22.58;12.02;;;;;;;15.70;100.00;101655.16;5231521;28;20037;-82
2021/08/26 02:26:23;;;;;;;22.42;10.90;;;;;;;15.70;100.00;101654.31;5185235;28;20036;-82
2021/08/26 02:28:54;;;;;;;22.23;11.57;;;;;;;15.74;100.00;101650.22;5217914;28;20051;-82
2021/08/26 02:31:25;;;;;;;19.17;10.48;;;;;;;15.73;100.00;101657.50;5213507;28;20344;-82
2021/08/26 02:33:56;;;;;;;22.48;10.77;;;;;;;15.70;100.00;101654.31;5232314;28;20044;-82
2021/08/26 02:36:26;;;;;;;21.02;10.00;;;;;;;15.75;100.00;101663.56;5231522;28;20052;-82
2021/08/26 02:38:57;;;;;;;22.30;10.48;;;;;;;15.76;100.00;101659.00;5228560;28;20051;-82
2021/08/26 02:41:27;;;;;;;23.65;9.82;;;;;;;15.71;100.00;101651.44;5220287;28;20207;-83
2021/08/26 02:43:58;;;;;;;14.40;7.25;;;;;;;15.72;100.00;101655.81;5218332;28;20020;-82
2021/08/26 02:46:28;;;;;;;8.30;4.57;;;;;;;15.74;100.00;101652.94;5231986;28;20080;-82
2021/08/26 02:48:59;;;;;;;5.68;3.25;;;;;;;15.79;100.00;101648.66;5230965;28;20119;-83
2021/08/26 02:51:29;;;;;;;5.30;3.03;;;;;;;15.85;100.00;101648.97;5231501;28;20020;-82
2021/08/26 02:54:00;;;;;;;4.55;3.00;;;;;;;15.77;100.00;101647.16;5229853;28;20025;-82
2021/08/26 02:56:30;;;;;;;5.43;2.78;;;;;;;15.78;100.00;101654.25;5230095;28;20021;-82
2021/08/26 02:59:01;;;;;;;6.95;3.00;;;;;;;15.77;100.00;101655.28;5229674;28;20021;-82
2021/08/26 03:01:31;;;;;;;6.10;2.50;;;;;;;15.94;100.00;101653.28;5228986;28;20080;-83
2021/08/26 03:04:02;;;;;;;3.83;2.58;;;;;;;15.89;100.00;101650.28;5229463;28;20055;-82
2021/08/26 03:06:32;;;;;;;8.65;2.75;;;;;;;15.85;100.00;101654.38;5228999;28;20076;-82
2021/08/26 03:09:03;;;;;;;5.03;2.63;;;;;;;15.86;100.00;101658.75;5228898;28;20056;-81
2021/08/26 03:11:33;;;;;;;10.35;2.95;;;;;;;15.76;100.00;101661.69;5225590;28;20027;-83
2021/08/26 03:14:04;;;;;;;4.68;2.75;;;;;;;15.74;100.00;101651.06;5219536;28;20124;-82
2021/08/26 03:16:34;;;;;;;6.07;2.90;;;;;;;15.79;100.00;101651.38;5229342;28;20028;-82
2021/08/26 03:19:05;;;;;;;6.82;3.17;;;;;;;15.84;100.00;101650.81;5217835;28;20048;-82
2021/08/26 03:21:35;;;;;;;4.60;3.13;;;;;;;15.86;100.00;101654.19;5209386;28;20027;-82
2021/08/26 03:24:06;;;;;;;5.63;3.33;;;;;;;15.86;100.00;101656.03;5227924;28;20032;-82
2021/08/26 03:26:36;;;;;;;5.35;3.60;;;;;;;15.80;100.00;101650.34;5228979;28;20048;-82
2021/08/26 03:29:07;;;;;;;7.05;3.63;;;;;;;15.81;100.00;101645.75;5225818;28;20086;-82
2021/08/26 03:31:37;;;;;;;7.38;3.33;;;;;;;15.89;100.00;101651.13;5208884;28;20337;-82
2021/08/26 03:34:08;;;;;;;6.90;2.95;;;;;;;15.87;100.00;101642.34;5225727;28;20025;-82
2021/08/26 03:36:38;;;;;;;5.43;3.15;;;;;;;15.86;100.00;101639.81;5216375;28;20029;-82
2021/08/26 03:39:09;;;;;;;8.82;3.65;;;;;;;15.77;100.00;101636.34;5218563;28;20029;-82
2021/08/26 03:41:39;;;;;;;7.85;3.03;;;;;;;15.77;100.00;101631.78;5215402;28;20025;-82
2021/08/26 03:44:10;;;;;;;9.10;3.67;;;;;;;15.72;100.00;101638.75;5225627;28;20044;-82
2021/08/26 03:46:40;;;;;;;4.35;2.90;;;;;;;15.69;100.00;101633.69;5225819;28;20017;-82
2021/08/26 03:49:11;;;;;;;11.70;3.00;;;;;;;15.67;100.00;101633.06;5225371;28;20083;-82
2021/08/26 03:51:41;;;;;;;6.13;3.08;;;;;;;15.62;100.00;101638.13;5211895;28;20497;-82
2021/08/26 03:54:12;;;;;;;11.98;3.60;;;;;;;15.62;100.00;101630.84;5224892;28;20037;-81
2021/08/26 03:56:43;;;;;;;8.32;2.88;;;;;;;15.53;100.00;101640.03;5225519;28;20028;-82
2021/08/26 03:59:13;;;;;;;4.55;2.20;;;;;;;15.50;100.00;101643.09;5224499;28;20081;-82
2021/08/26 04:01:44;;;;;;;7.80;2.80;;;;;;;15.46;100.00;101636.34;5224143;28;20045;-82
2021/08/26 04:04:14;;;;;;;10.45;2.90;;;;;;;15.43;100.00;101642.97;5224526;28;20056;-82
2021/08/26 04:06:45;;;;;;;7.75;2.33;;;;;;;15.43;100.00;101642.13;5223884;28;20025;-82
2021/08/26 04:09:15;;;;;;;6.78;2.83;;;;;;;15.39;100.00;101649.75;5206680;28;20036;-83
2021/08/26 04:11:45;;;;;;;17.58;3.35;;;;;;;15.37;100.00;101649.09;5224423;28;20087;-82
2021/08/26 04:14:16;;;;;;;9.77;2.67;;;;;;;15.50;100.00;101638.53;5224312;28;20108;-83
2021/08/26 04:16:46;;;;;;;8.80;2.50;;;;;;;15.41;100.00;101647.72;5224190;28;20076;-82
2021/08/26 04:19:17;;;;;;;6.88;2.42;;;;;;;15.43;100.00;101645.69;5210150;28;20037;-83
2021/08/26 04:21:47;;;;;;;11.13;2.33;;;;;;;15.41;100.00;101644.16;5224137;28;20115;-82
2021/08/26 04:24:18;;;;;;;14.13;3.13;;;;;;;15.41;100.00;101642.31;5222303;28;20029;-82
2021/08/26 04:26:48;;;;;;;8.13;2.47;;;;;;;15.31;100.00;101644.38;5212679;28;20042;-82
2021/08/26 04:29:19;;;;;;;10.30;2.45;;;;;;;15.21;100.00;101649.16;5223744;28;20028;-81
2021/08/26 04:31:49;;;;;;;13.75;3.95;;;;;;;15.12;100.00;101637.59;5223601;28;20106;-82
2021/08/26 04:34:20;;;;;;;10.68;2.90;;;;;;;15.11;100.00;101633.19;5224181;28;20036;-81
2021/08/26 04:36:50;;;;;;;6.90;2.55;;;;;;;15.16;100.00;101638.91;5205618;28;20063;-82
2021/08/26 04:39:20;;;;;;;11.98;2.40;;;;;;;15.07;100.00;101636.44;5223580;28;20383;-82
2021/08/26 04:41:51;;;;;;;11.05;2.85;;;;;;;15.12;100.00;101636.75;5205253;28;20170;-83
2021/08/26 04:44:21;;;;;;;14.23;3.25;;;;;;;15.10;100.00;101638.75;5223559;28;20028;-82
2021/08/26 04:46:52;;;;;;;8.07;2.85;;;;;;;15.02;100.00;101632.41;5223570;28;20027;-82
2021/08/26 04:49:23;;;;;;;12.40;3.20;;;;;;;15.14;100.00;101629.28;5223287;28;20403;-82
2021/08/26 04:51:53;;;;;;;13.63;3.25;;;;;;;15.17;100.00;101637.91;5223347;28;20070;-82
2021/08/26 04:54:24;;;;;;;11.05;3.25;;;;;;;15.17;100.00;101637.91;5205323;28;20545;-82
2021/08/26 04:56:54;;;;;;;12.15;3.30;;;;;;;15.22;100.00;101640.91;5222588;28;20058;-81
2021/08/26 04:59:25;;;;;;;11.68;2.95;;;;;;;15.26;100.00;101630.56;5222881;28;20029;-81
2021/08/26 05:01:55;;;;;;;16.58;4.05;;;;;;;15.29;100.00;101638.31;5223728;28;20064;-81
2021/08/26 05:04:26;;;;;;;13.60;3.97;;;;;;;15.25;100.00;101637.00;5223342;28;20115;-81
2021/08/26 05:06:56;;;;;;;13.60;2.97;;;;;;;15.22;100.00;101638.19;5223576;28;20025;-83
2021/08/26 05:09:27;;;;;;;13.85;3.58;;;;;;;15.22;100.00;101634.66;5211541;28;20091;-81
2021/08/26 05:12:00;;;;;;;14.32;3.42;;;;;;;15.25;100.00;101650.50;5199395;28;20104;-82
2021/08/26 05:14:31;;;;;;;20.75;4.53;;;;;;;15.26;100.00;101644.94;5216629;28;20123;-82
2021/08/26 05:17:02;;;;;;;12.63;3.13;;;;;;;15.30;100.00;101640.00;5215828;28;20430;-82
2021/08/26 05:19:32;;;;;;;13.30;3.88;;;;;;;15.34;100.00;101640.50;5218672;28;20024;-82
2021/08/26 05:22:03;;;;;;;19.80;4.20;;;;;;;15.31;100.00;101652.50;5227283;28;20498;-81
2021/08/26 05:24:33;;;;;;;23.42;3.88;;;;;;;15.28;100.00;101656.41;5227308;28;20104;-82
2021/08/26 05:27:04;;;;;;;15.65;4.53;;;;;;;15.30;100.00;101658.94;5226974;28;20017;-85
2021/08/26 05:29:34;;;;;;;22.73;4.65;;;;;;;15.22;100.00;101650.88;5204785;28;20060;-81
2021/08/26 05:32:05;;;;;;;20.70;3.75;;;;;;;15.15;100.00;101645.31;5217917;28;20102;-81
2021/08/26 05:34:36;;;;;;;14.82;3.88;;;;;;;15.21;100.00;101658.16;5226529;28;20025;-81
2021/08/26 05:37:06;;;;;;;12.25;3.63;;;;;;;15.24;100.00;101652.38;5226156;28;20492;-81
2021/08/26 05:39:37;;;;;;;24.27;4.93;;;;;;;15.18;100.00;101660.34;5225510;28;20025;-81
2021/08/26 05:42:07;;;;;;;24.73;4.80;;;;;;;15.16;100.00;101652.44;5223186;28;20031;-81
2021/08/26 05:44:38;;;;;;;13.43;3.88;;;;;;;15.19;100.00;101643.13;5213053;28;20032;-80
2021/08/26 05:47:08;;;;;;;21.23;4.00;;;;;;;15.16;100.00;101648.84;5224938;28;20107;-82
2021/08/26 05:49:39;;;;;;;19.60;4.60;;;;;;;15.16;100.00;101649.72;5225502;28;20040;-83
2021/08/26 05:52:10;;;;;;;14.43;3.97;;;;;;;15.20;100.00;101647.50;5213312;28;20032;-82
2021/08/26 05:54:40;;;;;;;16.95;4.18;;;;;;;15.21;100.00;101652.75;5214311;28;20022;-80
2021/08/26 05:57:11;;;;;;;15.40;4.35;;;;;;;15.39;100.00;101646.22;5222037;28;20029;-83
2021/08/26 05:59:41;;;;;;;20.83;4.25;;;;;;;15.36;100.00;101650.13;5210574;28;20024;-83
2021/08/26 06:02:12;;;;;;;16.05;3.75;;;;;;;15.41;100.00;101658.53;5222645;28;20496;-83
2021/08/26 06:04:42;;;;;;;15.82;4.30;;;;;;;15.54;100.00;101652.53;5221712;28;20441;-85
2021/08/26 06:07:13;;;;;;;18.23;3.95;;;;;;;15.64;100.00;101658.56;5213494;28;20029;-83
2021/08/26 06:09:43;;;;;;;21.13;4.47;;;;;;;15.69;100.00;101656.19;5225461;28;20025;-82
2021/08/26 06:12:13;;;;;;;14.68;3.80;;;;;;;15.65;100.00;101654.00;5225110;28;20124;-82
2021/08/26 06:14:44;;;;;;;21.98;4.10;;;;;;;15.70;100.00;101654.31;5227445;28;20471;-82
2021/08/26 06:17:14;;;;;;;15.98;4.75;;;;;;;15.82;100.00;101661.00;5227201;28;20033;-82
2021/08/26 06:19:45;;;;;;;16.95;3.83;;;;;;;15.81;100.00;101659.28;5212407;28;20443;-83
2021/08/26 06:22:16;;;;;;;14.52;4.25;;;;;;;15.95;100.00;101660.38;5227136;28;20479;-83
2021/08/26 06:24:46;;;;;;;14.05;4.15;;;;;;;16.02;100.00;101647.81;5220700;28;20100;-81
2021/08/26 06:27:16;;;;;;;17.20;4.43;;;;;;;15.98;100.00;101654.59;5205867;28;20029;-82
2021/08/26 06:29:47;;;;;;;17.60;3.92;;;;;;;16.08;100.00;101651.66;5225974;28;20040;-82
2021/08/26 06:32:17;;;;;;;21.92;4.35;;;;;;;16.07;100.00;101655.38;5208278;28;20021;-81
2021/08/26 06:34:48;;;;;;;18.50;4.40;;;;;;;16.13;100.00;101650.06;5226323;28;20036;-81
2021/08/26 06:37:18;;;;;;;19.30;3.75;;;;;;;16.14;100.00;101654.47;5226983;28;20029;-80
2021/08/26 06:39:49;;;;;;;13.63;3.95;;;;;;;16.23;100.00;101660.66;5224932;28;20093;-81
2021/08/26 06:42:19;;;;;;;20.98;4.05;;;;;;;16.38;100.00;101655.25;5218803;28;20026;-81
2021/08/26 06:44:50;;;;;;;11.23;3.55;;;;;;;16.41;100.00;101660.28;5212975;28;20029;-81
2021/08/26 06:47:20;;;;;;;15.73;3.67;;;;;;;16.53;100.00;101667.78;5223339;28;20032;-80
2021/08/26 06:49:51;;;;;;;15.52;3.80;;;;;;;16.48;100.00;101664.78;5235792;28;20084;-81
2021/08/26 06:52:22;;;;;;;16.80;3.63;;;;;;;16.50;100.00;101664.59;5223261;28;20029;-81
2021/08/26 06:54:52;;;;;;;20.88;3.95;;;;;;;16.47;100.00;101662.28;5223114;28;20490;-82
2021/08/26 06:57:27;;;;;;;17.17;4.43;;;;;;;16.51;100.00;101667.09;5222932;28;20021;-81
2021/08/26 06:59:58;;;;;;;12.10;3.72;;;;;;;16.61;100.00;101672.25;5207866;28;20028;-81
2021/08/26 07:02:28;;;;;;;15.68;3.88;;;;;;;16.69;100.00;101668.63;5227195;28;20375;-78
2021/08/26 07:04:59;;;;;;;13.07;3.20;;;;;;;16.89;100.00;101669.78;5226958;28;20448;-79
2021/08/26 07:07:29;;;;;;;14.35;4.07;;;;;;;16.93;100.00;101667.53;5227060;28;20045;-79
2021/08/26 07:10:00;;;;;;;15.13;4.30;;;;;;;16.95;100.00;101671.72;5226482;28;20025;-80
2021/08/26 07:12:31;;;;;;;22.38;3.95;;;;;;;16.93;100.00;101676.50;5226930;28;20502;-82
2021/08/26 07:15:02;;;;;;;19.05;4.07;;;;;;;17.21;100.00;101665.81;5226708;28;20201;-82
2021/08/26 07:17:34;;;;;;;24.30;3.70;;;;;;;17.01;100.00;101667.41;5188561;28;20056;-81
2021/08/26 07:20:06;;;;;;;15.85;3.33;;;;;;;16.88;100.00;101670.81;5225968;28;20016;-82
2021/08/26 07:22:36;;;;;;;21.20;3.97;;;;;;;16.80;100.00;101669.03;5226719;28;20029;-81
2021/08/26 07:25:08;;;;;;;15.07;3.58;;;;;;;16.89;100.00;101679.78;5226362;28;20083;-80
2021/08/26 07:27:38;;;;;;;16.33;3.78;;;;;;;16.73;100.00;101668.09;5226043;28;20024;-80
2021/08/26 07:30:09;;;;;;;12.25;4.20;;;;;;;16.63;100.00;101663.97;5226320;28;20047;-81
2021/08/26 07:32:39;;;;;;;18.80;3.78;;;;;;;16.72;100.00;101666.44;5226193;28;20483;-81
2021/08/26 07:35:10;;;;;;;21.45;4.13;;;;;;;16.65;100.00;101672.72;5215295;28;20026;-81
2021/08/26 07:37:41;;;;;;;18.40;3.47;;;;;;;16.70;100.00;101676.56;5224221;28;20087;-81
2021/08/26 07:40:12;;;;;;;18.80;3.45;;;;;;;16.85;100.00;101670.34;5225690;28;20074;-80
2021/08/26 07:42:42;;;;;;;16.80;3.20;;;;;;;17.13;100.00;101671.34;5224519;28;20431;-80
2021/08/26 07:45:13;;;;;;;22.40;3.90;;;;;;;17.22;100.00;101681.06;5225727;28;20068;-80
2021/08/26 07:47:43;;;;;;;15.18;3.33;;;;;;;17.40;100.00;101671.66;5217496;28;20021;-80
2021/08/26 07:50:14;;;;;;;13.18;3.72;;;;;;;17.40;100.00;101671.66;5201843;28;20091;-81
2021/08/26 07:52:44;;;;;;;17.08;3.47;;;;;;;17.28;100.00;101669.44;5226225;28;20047;-81
2021/08/26 07:55:15;;;;;;;17.00;3.28;;;;;;;17.33;100.00;101667.00;5225722;28;20533;-82
2021/08/26 07:57:46;;;;;;;16.25;2.78;;;;;;;17.12;100.00;101671.53;5225208;28;20022;-82
2021/08/26 08:00:16;;;;;;;15.18;3.00;;;;;;;17.29;100.00;101663.00;5224865;28;20052;-80
2021/08/26 08:02:48;;;;;;;20.58;3.00;;;;;;;17.29;100.00;101671.13;5224791;28;20028;-80
2021/08/26 08:05:19;;;;;;;14.60;3.15;;;;;;;17.14;100.00;101673.03;5224569;28;20435;-80
2021/08/26 08:07:49;;;;;;;13.27;2.70;;;;;;;17.07;100.00;101662.09;5224783;28;20059;-81
2021/08/26 08:10:20;;;;;;;15.57;3.08;;;;;;;17.23;100.00;101668.34;5223696;28;20027;-78
2021/08/26 08:12:50;;;;;;;16.33;2.55;;;;;;;17.21;100.00;101671.22;5224722;28;20025;-82
2021/08/26 08:15:20;;;;;;;16.08;2.67;;;;;;;17.34;100.00;101671.41;5216735;28;20075;-81
2021/08/26 08:17:51;;;;;;;10.07;2.60;;;;;;;17.24;100.00;101673.56;5218980;28;20021;-81
2021/08/26 08:20:21;;;;;;;17.02;3.10;;;;;;;17.13;100.00;101671.34;5224668;28;20486;-81
2021/08/26 08:22:52;;;;;;;14.98;2.80;;;;;;;17.30;100.00;101666.53;5205873;28;20591;-79
2021/08/26 08:25:22;;;;;;;17.70;3.28;;;;;;;17.38;100.00;101669.16;5214021;28;20029;-81
2021/08/26 08:27:53;;;;;;;9.02;2.42;;;;;;;17.24;100.00;101672.72;5217028;28;20013;-81
2021/08/26 08:30:26;;;;;;;11.35;2.40;;;;;;;17.35;100.00;101661.38;5214526;28;20020;-81
2021/08/26 08:32:58;;;;;;;9.50;1.90;;;;;;;17.32;100.00;101670.75;5223988;28;20102;-80
2021/08/26 08:35:28;;;;;;;17.25;3.30;;;;;;;17.27;100.00;101664.19;5205680;28;20028;-78
2021/08/26 08:37:59;;;;;;;13.68;3.22;;;;;;;17.23;100.00;101666.47;5223726;28;20028;-81
2021/08/26 08:40:30;;;;;;;10.38;2.97;;;;;;;17.23;100.00;101671.06;5222233;28;20107;-81
2021/08/26 08:43:00;;;;;;;17.65;2.90;;;;;;;17.14;100.00;101666.75;5207014;28;20394;-82
2021/08/26 08:45:31;;;;;;;11.13;2.65;;;;;;;17.18;100.00;101666.19;5224868;28;20033;-81
2021/08/26 08:48:04;;;;;;;13.38;2.92;;;;;;;17.17;100.00;101671.78;5224484;28;20044;-81
2021/08/26 08:50:35;;;;;;;12.30;2.33;;;;;;;17.11;100.00;101673.41;5224656;28;20383;-79
2021/08/26 08:53:11;;;;;;;12.48;2.72;;;;;;;17.17;100.00;101674.50;5225071;28;20033;-80
2021/08/26 08:55:44;;;;;;;8.07;2.60;;;;;;;17.11;100.00;101670.69;5218125;28;20021;-79
2021/08/26 08:58:14;;;;;;;13.02;2.95;;;;;;;17.09;100.00;101659.19;5217217;28;20025;-81
2021/08/26 09:00:45;;;;;;;13.75;3.58;;;;;;;17.01;100.00;101665.56;5203800;28;20387;-80
2021/08/26 09:03:15;;;;;;;10.75;2.80;;;;;;;17.14;100.00;101672.19;5201548;28;20025;-81
2021/08/26 09:05:57;;;;;;;14.35;3.10;;;;;;;17.31;100.00;101669.06;5224970;28;20086;-80
2021/08/26 09:08:31;;;;;;;9.60;3.13;;;;;;;17.50;100.00;101664.88;5229172;28;20047;-80
2021/08/26 09:11:12;;;;;;;13.18;3.33;;;;;;;17.93;100.00;101666.81;5227445;28;20021;-81
2021/08/26 09:13:45;;;;;;;14.15;2.70;;;;;;;18.23;100.00;101657.47;5228287;28;20425;-82
2021/08/26 09:16:15;;;;;;;18.92;2.83;;;;;;;18.49;100.00;101664.13;5210175;28;20378;-80
2021/08/26 09:18:46;;;;;;;14.00;3.13;;;;;;;18.53;100.00;101662.72;5228939;28;20496;-80
2021/08/26 09:21:16;;;;;;;14.13;3.00;;;;;;;18.69;100.00;101659.69;5228679;28;20073;-81
2021/08/26 09:23:55;;;;;;;12.95;2.20;;;;;;;18.63;100.00;101657.75;5227494;28;20021;-82
2021/08/26 09:26:27;;;;;;;20.38;2.83;;;;;;;18.51;100.00;101659.34;5228796;28;20116;-81
2021/08/26 09:29:01;;;;;;;9.77;2.35;;;;;;;18.41;100.00;101653.41;5228049;28;20457;-81
2021/08/26 09:31:33;;;;;;;9.75;2.42;;;;;;;17.99;100.00;101649.75;5227908;28;20063;-82
2021/08/26 09:34:06;;;;;;;11.18;2.38;;;;;;;18.00;100.00;101656.84;5225470;28;20017;-81
2021/08/26 09:36:51;;;;;;;11.05;2.88;;;;;;;17.67;100.00;101659.22;5228637;28;20381;-82
2021/08/26 09:39:24;;;;;;;6.75;1.40;;;;;;;17.59;100.00;101660.19;5228713;28;20029;-78
2021/08/26 09:41:58;;;;;;;8.48;1.80;;;;;;;17.56;100.00;101655.97;5227635;28;20360;-77
2021/08/26 09:44:33;;;;;;;11.45;2.30;;;;;;;17.64;100.00;101654.19;5215516;28;20112;-81
2021/08/26 09:47:06;;;;;;;7.85;1.85;;;;;;;17.82;100.00;101652.75;5227941;28;20025;-81
2021/08/26 09:49:39;;;;;;;6.50;1.45;;;;;;;18.22;100.00;101658.50;5226278;28;20439;-81
2021/08/26 09:52:11;;;;;;;8.40;1.63;;;;;;;18.60;100.00;101652.72;5226660;28;20375;-81
2021/08/26 09:54:50;;;;;;;6.25;2.00;;;;;;;19.16;100.00;101660.75;5226014;28;20029;-80
2021/08/26 09:57:24;;;;;;;9.77;2.58;;;;;;;19.14;100.00;101655.53;5225094;28;20033;-81
2021/08/26 09:59:57;;;;;;;8.27;1.92;;;;;;;19.06;100.00;101657.56;5224634;28;20064;-81
2021/08/26 10:02:30;;;;;;;10.27;1.70;;;;;;;19.06;100.00;101655.69;5225609;28;20134;-82
2021/08/26 10:05:01;;;;;;;11.20;2.40;;;;;;;18.91;100.00;101662.31;5223954;28;20024;-82
2021/08/26 10:07:31;;;;;;;9.55;1.63;;;;;;;18.83;100.00;101661.47;5224882;28;20036;-82
2021/08/26 10:10:02;;;;;;;12.43;2.35;;;;;;;18.99;100.00;101665.72;5193197;28;20021;-82
2021/08/26 10:12:33;;;;;;;10.52;2.58;;;;;;;19.01;100.00;101669.06;5224847;28;20484;-83
2021/08/26 10:15:04;;;;;;;9.82;2.08;;;;;;;18.66;100.00;101668.22;5227015;28;20390;-82
2021/08/26 10:17:37;;;;;;;5.78;1.63;;;;;;;18.63;100.00;101669.47;5228031;28;20202;-82
2021/08/26 10:20:08;;;;;;;5.15;1.55;;;;;;;18.55;100.00;101668.78;5226757;28;20063;-81
2021/08/26 10:22:39;;;;;;;9.05;1.90;;;;;;;18.46;100.00;101668.06;5227093;28;20103;-79
2021/08/26 10:25:09;;;;;;;7.22;1.67;;;;;;;18.52;100.00;101667.28;5228410;28;20087;-81
2021/08/26 10:27:41;;;;;;;17.33;1.98;;;;;;;18.45;100.00;101665.56;5210038;28;20107;-80
2021/08/26 10:30:32;;;;;;;8.65;1.92;;;;;;;18.55;100.00;101669.59;5217783;28;20026;-80
2021/08/26 10:33:12;;;;;;;10.05;2.13;;;;;;;18.56;100.00;101662.28;5224905;28;20089;-80
2021/08/26 10:36:04;;;;;;;8.52;1.90;;;;;;;18.96;100.00;101668.00;5229119;28;20032;-80
2021/08/26 10:38:36;;;;;;;7.88;1.80;;;;;;;18.92;100.00;101656.66;5219221;28;20451;-82
2021/08/26 10:41:25;;;;;;;9.38;2.05;;;;;;;19.38;100.00;101656.03;5226684;28;20459;-81
2021/08/26 10:43:59;;;;;;;6.93;1.77;;;;;;;19.36;100.00;101652.66;5226999;28;20033;-82
2021/08/26 10:46:49;;;;;;;7.75;1.85;;;;;;;19.29;100.00;101655.38;5227687;28;20029;-82
2021/08/26 10:49:21;;;;;;;8.95;1.42;;;;;;;19.06;100.00;101658.41;5227054;28;20441;-82
2021/08/26 10:51:53;;;;;;;9.48;2.30;;;;;;;18.85;100.00;101656.66;5212323;28;20060;-85
2021/08/26 10:54:26;;;;;;;11.02;1.80;;;;;;;18.61;100.00;101662.53;5214345;28;20033;-82
2021/08/26 10:57:17;;;;;;;6.72;1.50;;;;;;;18.63;100.00;101657.75;5211221;28;20132;-84
2021/08/26 10:59:48;;;;;;;10.73;2.08;;;;;;;18.33;100.00;101651.69;5218494;28;20028;-82
2021/08/26 11:02:40;;;;;;;6.28;1.75;;;;;;;18.17;100.00;101651.97;5207228;28;20257;-80
2021/08/26 11:05:31;;;;;;;12.98;2.67;;;;;;;18.26;100.00;101659.78;5226412;28;20526;-80
2021/08/26 11:08:29;;;;;;;9.90;1.77;;;;;;;18.46;100.00;101654.50;5228901;28;20419;-81
2021/08/26 11:11:31;;;;;;;7.28;1.80;;;;;;;18.82;100.00;101657.03;5216477;28;20029;-82
2021/08/26 11:14:02;;;;;;;10.13;1.40;;;;;;;18.98;100.00;101658.59;5216481;28;20081;-81
2021/08/26 11:16:35;;;;;;;6.35;1.50;;;;;;;19.17;100.00;101654.28;5213089;28;20041;-81
2021/08/26 11:19:08;;;;;;;5.82;1.50;;;;;;;19.46;100.00;101650.41;5226946;28;20039;-82
2021/08/26 11:22:00;;;;;;;5.85;1.67;;;;;;;19.58;100.00;101650.66;5226856;28;20029;-82
2021/08/26 11:24:38;;;;;;;5.18;1.52;;;;;;;19.47;100.00;101659.38;5229722;28;20032;-81
2021/08/26 11:27:20;;;;;;;9.30;1.52;;;;;;;19.57;100.00;101655.22;5230961;28;20032;-81
2021/08/26 11:29:51;;;;;;;3.80;1.15;;;;;;;19.59;100.00;101647.75;5224920;28;20029;-82
2021/08/26 11:32:24;;;;;;;4.80;1.92;;;;;;;19.71;100.00;101653.41;5210345;28;20025;-82
2021/08/26 11:34:57;;;;;;;5.70;1.25;;;;;;;19.61;100.00;101656.53;5215809;28;20078;-81
2021/08/26 11:37:31;;;;;;;3.85;1.42;;;;;;;19.56;100.00;101644.56;5232112;28;20067;-81